Time;durP1;ratioP1;P1;durP2;ratioP2;P2;SDS_P1;SDS_P2;PMS_P1;PMS_P2;Temp;Humidity;BMP_temperature;BMP_pressure;BME280_temperature;BME280_humidity;BME280_pressure;Samples;Min_cycle;Max_cycle;Signal;HPM_P1;HPM_P2
2022/07/15 00:00:36;;;;;;;12.38;2.13;;;12.70;99.90;;;;;;4916588;28;256988;-71
2022/07/15 00:03:02;;;;;;;14.85;2.47;;;12.60;99.90;;;;;;4980237;28;20420;-72
2022/07/15 00:05:29;;;;;;;14.70;2.53;;;12.70;99.90;;;;;;4914062;28;268781;-71
2022/07/15 00:07:58;;;;;;;13.95;2.58;;;12.70;99.90;;;;;;4972147;28;20058;-72
2022/07/15 00:10:24;;;;;;;11.10;2.33;;;12.70;99.90;;;;;;4917813;28;262596;-71
2022/07/15 00:12:52;;;;;;;14.45;2.25;;;12.70;99.90;;;;;;4972497;28;20476;-72
2022/07/15 00:15:21;;;;;;;10.90;2.20;;;12.70;99.90;;;;;;4948974;28;264630;-71
2022/07/15 00:17:48;;;;;;;12.18;2.30;;;12.80;99.90;;;;;;4929652;28;206370;-71
2022/07/15 00:20:15;;;;;;;13.13;2.72;;;12.80;99.90;;;;;;4960176;28;257267;-71
2022/07/15 00:22:43;;;;;;;10.55;2.25;;;12.80;99.90;;;;;;4930534;28;219627;-71
2022/07/15 00:25:09;;;;;;;12.40;2.33;;;12.90;99.90;;;;;;4968116;28;53821;-71
2022/07/15 00:27:36;;;;;;;10.82;2.15;;;12.90;99.90;;;;;;4927655;28;216701;-72
2022/07/15 00:30:05;;;;;;;14.60;2.22;;;12.80;99.90;;;;;;4980080;28;232307;-71
2022/07/15 00:32:32;;;;;;;10.75;2.20;;;12.90;99.90;;;;;;4955046;28;210136;-72
2022/07/15 00:34:58;;;;;;;12.55;2.47;;;12.90;99.90;;;;;;4958366;28;171899;-72
2022/07/15 00:37:24;;;;;;;13.38;2.25;;;13.00;99.90;;;;;;4925468;28;219245;-72
2022/07/15 00:39:50;;;;;;;9.18;2.03;;;13.00;99.90;;;;;;4951267;28;240071;-72
2022/07/15 00:43:02;;;;;;;13.57;2.30;;;13.00;99.90;;;;;;4945501;28;204337;-72
2022/07/15 00:45:03;;;;;;;15.32;2.17;;;13.00;99.90;;;;;;4984679;28;53180;-72
2022/07/15 00:47:30;;;;;;;11.00;2.10;;;13.10;99.90;;;;;;4935289;28;206692;-72
2022/07/15 00:49:56;;;;;;;12.20;2.10;;;13.10;99.90;;;;;;4964074;28;61389;-72
2022/07/15 00:52:24;;;;;;;12.75;2.40;;;13.00;99.90;;;;;;4931054;28;205899;-72
2022/07/15 00:54:52;;;;;;;11.68;2.35;;;13.10;99.90;;;;;;4959233;28;248601;-72
2022/07/15 00:57:20;;;;;;;11.63;2.28;;;13.10;99.90;;;;;;4930363;28;216156;-72
2022/07/15 00:59:47;;;;;;;12.23;2.50;;;13.10;99.90;;;;;;4956959;28;257801;-72
2022/07/15 01:02:14;;;;;;;11.50;2.20;;;13.10;99.90;;;;;;4934125;28;211576;-72
2022/07/15 01:04:40;;;;;;;12.57;2.65;;;13.10;99.90;;;;;;4938042;28;242257;-71
2022/07/15 01:07:06;;;;;;;13.63;2.65;;;13.10;99.90;;;;;;4923555;28;206072;-73
2022/07/15 01:09:32;;;;;;;10.25;2.13;;;13.10;99.90;;;;;;4958508;28;20470;-72
2022/07/15 01:11:58;;;;;;;13.95;2.67;;;13.00;99.90;;;;;;4933915;28;205692;-72
2022/07/15 01:14:25;;;;;;;12.52;2.33;;;13.00;99.90;;;;;;4949509;28;268291;-73
2022/07/15 01:16:52;;;;;;;12.70;2.35;;;12.90;99.90;;;;;;4951324;28;205370;-72
2022/07/15 01:19:18;;;;;;;13.48;2.67;;;12.90;99.90;;;;;;4942016;28;272405;-72
2022/07/15 01:21:44;;;;;;;11.80;2.35;;;12.80;99.90;;;;;;4921729;28;217718;-72
2022/07/15 01:24:11;;;;;;;14.00;2.78;;;12.80;99.90;;;;;;4949424;28;252589;-72
2022/07/15 01:26:37;;;;;;;11.48;2.47;;;12.80;99.90;;;;;;4944122;28;192613;-73
2022/07/15 01:29:03;;;;;;;11.60;2.60;;;12.80;99.90;;;;;;4976213;28;20038;-72
2022/07/15 01:31:29;;;;;;;13.73;2.22;;;12.80;99.90;;;;;;4898902;28;210473;-72
2022/07/15 01:33:55;;;;;;;19.33;3.20;;;12.80;99.90;;;;;;4965422;28;20054;-72
2022/07/15 01:36:21;;;;;;;13.05;2.65;;;12.80;99.90;;;;;;4903947;28;216693;-73
2022/07/15 01:38:48;;;;;;;11.77;2.42;;;12.80;99.90;;;;;;4971255;28;20059;-72
2022/07/15 01:41:14;;;;;;;11.63;2.72;;;12.80;99.90;;;;;;4933830;28;208539;-72
2022/07/15 01:43:41;;;;;;;12.70;2.38;;;12.80;99.90;;;;;;4957492;28;20077;-73
2022/07/15 01:46:07;;;;;;;12.82;2.35;;;12.80;99.90;;;;;;4937489;28;210325;-72
2022/07/15 01:51:18;;;;;;;11.85;2.67;;;12.80;99.90;;;;;;4922185;28;270351;-72
2022/07/15 01:53:44;;;;;;;14.45;2.70;;;12.90;99.90;;;;;;4961194;28;20066;-73
2022/07/15 01:56:10;;;;;;;11.75;2.40;;;12.90;99.90;;;;;;4929352;28;258832;-73
2022/07/15 01:58:37;;;;;;;13.57;2.72;;;12.90;99.90;;;;;;4959238;28;20050;-73
2022/07/15 02:01:03;;;;;;;11.73;2.47;;;12.90;99.90;;;;;;4923144;28;206234;-72
2022/07/15 02:03:29;;;;;;;13.93;2.67;;;12.90;99.90;;;;;;4966300;28;20081;-73
2022/07/15 02:05:55;;;;;;;11.50;2.50;;;12.90;99.90;;;;;;4912116;28;283908;-72
2022/07/15 02:08:21;;;;;;;12.57;2.53;;;12.90;99.90;;;;;;4965399;28;20055;-72
2022/07/15 02:10:47;;;;;;;14.82;2.55;;;12.90;99.90;;;;;;4932084;28;245849;-70
2022/07/15 02:13:14;;;;;;;13.27;2.60;;;12.80;99.90;;;;;;4979128;28;20047;-70
2022/07/15 02:15:41;;;;;;;14.93;2.55;;;12.90;99.90;;;;;;4921647;28;274571;-70
2022/07/15 02:18:08;;;;;;;14.05;2.58;;;12.80;99.90;;;;;;4971539;28;20050;-72
2022/07/15 02:20:34;;;;;;;14.80;2.42;;;12.80;99.90;;;;;;4927228;28;206189;-72
2022/07/15 02:23:01;;;;;;;14.52;3.10;;;12.80;99.90;;;;;;4988466;28;20073;-71
2022/07/15 02:25:30;;;;;;;12.23;2.20;;;12.80;99.90;;;;;;4922623;28;272948;-71
2022/07/15 02:27:59;;;;;;;11.80;2.20;;;12.70;99.90;;;;;;4973227;28;20062;-71
2022/07/15 02:30:26;;;;;;;11.25;2.33;;;12.70;99.90;;;;;;4925727;28;276424;-71
2022/07/15 02:32:52;;;;;;;18.23;2.42;;;12.70;99.90;;;;;;4988567;28;20515;-72
2022/07/15 02:35:19;;;;;;;14.30;2.42;;;12.70;99.90;;;;;;4953495;28;254907;-72
2022/07/15 02:37:46;;;;;;;11.18;2.47;;;12.60;99.90;;;;;;4933660;28;187750;-72
2022/07/15 02:40:13;;;;;;;13.88;2.55;;;12.60;99.90;;;;;;4970108;28;260697;-72
2022/07/15 02:42:39;;;;;;;14.38;2.50;;;12.50;99.90;;;;;;4945280;28;206201;-72
2022/07/15 02:45:06;;;;;;;13.07;2.47;;;12.50;99.90;;;;;;4959889;28;272380;-72
2022/07/15 02:47:32;;;;;;;13.68;2.45;;;12.50;99.90;;;;;;4932937;28;209085;-72
2022/07/15 02:49:58;;;;;;;13.32;2.38;;;12.50;99.90;;;;;;4959108;28;221544;-72
2022/07/15 02:52:24;;;;;;;11.80;2.22;;;12.40;99.90;;;;;;4950489;28;206830;-72
2022/07/15 02:54:51;;;;;;;13.55;2.13;;;12.40;99.90;;;;;;4958306;28;256008;-71
2022/07/15 02:57:17;;;;;;;11.63;2.45;;;12.30;99.90;;;;;;4928309;28;206701;-72
2022/07/15 02:59:43;;;;;;;16.50;2.50;;;12.30;99.90;;;;;;4955962;28;255046;-72
2022/07/15 03:02:09;;;;;;;15.18;2.40;;;12.30;99.90;;;;;;4945396;28;204569;-72
2022/07/15 03:04:35;;;;;;;13.55;2.63;;;12.20;99.90;;;;;;4943682;28;187866;-72
2022/07/15 03:07:01;;;;;;;10.77;2.45;;;12.20;99.90;;;;;;4912029;28;214968;-72
2022/07/15 03:09:27;;;;;;;15.25;2.63;;;12.20;99.90;;;;;;4936033;28;248125;-71
2022/07/15 03:11:54;;;;;;;11.77;2.42;;;12.20;99.90;;;;;;4937357;28;206822;-72
2022/07/15 03:14:20;;;;;;;12.40;2.30;;;12.10;99.90;;;;;;4953123;28;260618;-71
2022/07/15 03:16:46;;;;;;;14.63;2.70;;;12.10;99.90;;;;;;4935933;28;213093;-72
2022/07/15 03:19:12;;;;;;;11.63;2.67;;;12.10;99.90;;;;;;4943206;28;256018;-72
2022/07/15 03:21:38;;;;;;;13.40;2.40;;;12.10;99.90;;;;;;4953726;28;219235;-72
2022/07/15 03:24:07;;;;;;;12.00;2.75;;;12.10;99.90;;;;;;4965358;28;20061;-72
2022/07/15 03:26:33;;;;;;;10.45;2.20;;;12.10;99.90;;;;;;4927633;28;216307;-72
2022/07/15 03:29:00;;;;;;;11.73;2.47;;;12.20;99.90;;;;;;4951802;28;20058;-72
2022/07/15 03:31:27;;;;;;;12.80;2.30;;;12.30;99.90;;;;;;4911782;28;207717;-72
2022/07/15 03:33:55;;;;;;;13.07;2.67;;;12.30;99.90;;;;;;4973859;28;20051;-72
2022/07/15 03:36:21;;;;;;;13.70;2.22;;;12.30;99.90;;;;;;4925734;28;205972;-71
2022/07/15 03:38:49;;;;;;;13.05;2.38;;;12.30;99.90;;;;;;4967860;28;20051;-72
2022/07/15 03:41:15;;;;;;;14.15;2.83;;;12.30;99.90;;;;;;4910628;28;205836;-72
2022/07/15 03:43:41;;;;;;;13.55;2.50;;;12.20;99.90;;;;;;4992704;28;20065;-72
2022/07/15 03:46:07;;;;;;;12.15;2.40;;;12.20;99.90;;;;;;4931359;28;213305;-72
2022/07/15 03:48:34;;;;;;;12.85;2.80;;;12.20;99.90;;;;;;4975753;28;20082;-72
2022/07/15 03:51:00;;;;;;;12.07;2.70;;;12.10;99.90;;;;;;4931174;28;207360;-72
2022/07/15 03:53:26;;;;;;;16.45;2.90;;;12.10;99.90;;;;;;4962596;28;20424;-72
2022/07/15 03:55:52;;;;;;;14.00;3.00;;;12.10;99.90;;;;;;4922989;28;216463;-72
2022/07/15 03:58:18;;;;;;;13.55;3.10;;;12.10;99.90;;;;;;4981644;28;20051;-72
2022/07/15 04:00:44;;;;;;;11.77;2.88;;;12.00;99.90;;;;;;4923984;28;274918;-72
2022/07/15 04:03:10;;;;;;;11.98;2.40;;;12.00;99.90;;;;;;4965362;28;20074;-72
2022/07/15 04:05:38;;;;;;;14.38;2.72;;;12.00;99.90;;;;;;4904829;28;203825;-73
2022/07/15 04:08:04;;;;;;;14.88;3.20;;;12.00;99.90;;;;;;4979950;28;20535;-72
2022/07/15 04:10:31;;;;;;;15.65;3.17;;;12.00;99.90;;;;;;4917661;28;270897;-72
2022/07/15 04:12:58;;;;;;;13.05;2.80;;;11.90;99.90;;;;;;4949306;28;20053;-72
2022/07/15 04:15:24;;;;;;;12.73;2.83;;;11.90;99.90;;;;;;4921955;28;210464;-72
2022/07/15 04:17:50;;;;;;;11.73;2.40;;;11.90;99.90;;;;;;4954621;28;20532;-72
2022/07/15 04:20:17;;;;;;;13.80;2.80;;;11.90;99.90;;;;;;4936814;28;215215;-70
2022/07/15 04:22:46;;;;;;;14.20;3.30;;;11.90;99.90;;;;;;4941998;28;88718;-72
2022/07/15 04:25:16;;;;;;;10.68;2.65;;;11.90;99.90;;;;;;4960618;28;130885;-72
2022/07/15 04:27:43;;;;;;;12.77;2.83;;;12.00;99.90;;;;;;4932507;28;207534;-72
2022/07/15 04:30:10;;;;;;;12.00;2.90;;;12.00;99.90;;;;;;4965443;28;75921;-72
2022/07/15 04:32:36;;;;;;;13.95;3.10;;;12.00;99.90;;;;;;4947699;28;206545;-72
2022/07/15 04:35:03;;;;;;;14.23;2.80;;;12.00;99.90;;;;;;4957754;28;228171;-72
2022/07/15 04:37:29;;;;;;;10.38;2.80;;;12.10;99.90;;;;;;4921291;28;206498;-73
2022/07/15 04:39:56;;;;;;;11.32;2.60;;;12.20;99.90;;;;;;4970161;28;176917;-72
2022/07/15 04:42:22;;;;;;;12.98;2.50;;;12.20;99.90;;;;;;4941666;28;202622;-72
2022/07/15 04:44:49;;;;;;;12.38;2.53;;;12.20;99.90;;;;;;4953896;28;262658;-72
2022/07/15 04:47:15;;;;;;;9.27;2.17;;;12.30;99.90;;;;;;4913706;28;206234;-72
2022/07/15 04:52:26;;;;;;;15.68;3.08;;;12.30;99.90;;;;;;4934541;28;205912;-72
2022/07/15 04:54:53;;;;;;;14.82;2.83;;;12.30;99.90;;;;;;4960310;28;57393;-72
2022/07/15 04:57:20;;;;;;;10.88;2.33;;;12.30;99.90;;;;;;4917303;28;206120;-72
2022/07/15 04:59:47;;;;;;;12.85;2.53;;;12.40;99.90;;;;;;4952578;28;183985;-72
2022/07/15 05:02:13;;;;;;;10.75;2.50;;;12.40;99.90;;;;;;4938334;28;214703;-72
2022/07/15 05:04:40;;;;;;;11.63;2.53;;;12.40;99.90;;;;;;4947918;28;258005;-72
2022/07/15 05:07:07;;;;;;;10.77;2.50;;;12.50;99.90;;;;;;4934127;28;199190;-72
2022/07/15 05:09:33;;;;;;;9.75;1.90;;;12.50;99.90;;;;;;4958615;28;60321;-72
2022/07/15 05:12:00;;;;;;;13.23;1.70;;;12.50;99.90;;;;;;4926897;28;205770;-72
2022/07/15 05:14:26;;;;;;;11.27;1.70;;;12.60;99.90;;;;;;4983940;28;261906;-72
2022/07/15 05:16:52;;;;;;;8.88;1.25;;;12.60;99.90;;;;;;4951379;28;213312;-72
2022/07/15 05:19:18;;;;;;;11.43;1.43;;;12.70;99.90;;;;;;4947824;28;291191;-72
2022/07/15 05:21:44;;;;;;;9.45;1.25;;;12.80;99.90;;;;;;4924804;28;205247;-72
2022/07/15 05:24:11;;;;;;;6.72;1.52;;;13.00;99.90;;;;;;4984000;28;259064;-71
2022/07/15 05:26:37;;;;;;;10.15;1.40;;;13.00;99.90;;;;;;4942227;28;210345;-72
2022/07/15 05:29:03;;;;;;;9.55;1.30;;;13.20;99.90;;;;;;4997936;28;20062;-72
2022/07/15 05:31:29;;;;;;;8.95;1.23;;;13.30;99.90;;;;;;4936366;28;265504;-72
2022/07/15 05:33:55;;;;;;;11.63;1.40;;;13.40;99.90;;;;;;4962608;28;20046;-71
2022/07/15 05:36:21;;;;;;;10.20;1.23;;;13.40;99.90;;;;;;4929041;28;205950;-72
2022/07/15 05:38:47;;;;;;;5.15;0.85;;;13.60;99.90;;;;;;4986508;28;20059;-72
2022/07/15 05:41:13;;;;;;;8.77;1.20;;;13.70;99.90;;;;;;4924813;28;208935;-71
2022/07/15 05:43:39;;;;;;;9.35;1.02;;;13.70;99.90;;;;;;4967368;28;20511;-72
2022/07/15 05:46:06;;;;;;;9.25;1.20;;;13.80;99.90;;;;;;4928269;28;246354;-72
2022/07/15 05:48:32;;;;;;;7.75;1.45;;;14.00;99.90;;;;;;4964688;28;20063;-72
2022/07/15 05:50:58;;;;;;;8.75;1.33;;;14.10;99.90;;;;;;4928362;28;204765;-72
2022/07/15 05:53:24;;;;;;;10.02;1.50;;;14.10;99.90;;;;;;4981465;28;20445;-72
2022/07/15 05:55:52;;;;;;;8.50;1.40;;;14.10;99.90;;;;;;4932564;28;256171;-73
2022/07/15 05:58:18;;;;;;;10.45;1.38;;;14.20;99.90;;;;;;4972373;28;20070;-72
2022/07/15 06:00:44;;;;;;;9.68;1.33;;;14.20;99.90;;;;;;4948493;28;212555;-71
2022/07/15 06:03:11;;;;;;;9.75;1.40;;;14.30;99.90;;;;;;4980043;28;20050;-72
2022/07/15 06:05:37;;;;;;;8.77;1.20;;;14.40;99.90;;;;;;4912675;28;260962;-71
2022/07/15 06:08:03;;;;;;;7.65;1.48;;;14.40;99.90;;;;;;4975542;28;20073;-72
2022/07/15 06:10:29;;;;;;;8.10;1.33;;;14.50;99.90;;;;;;4917898;28;203145;-72
2022/07/15 06:12:55;;;;;;;8.60;1.10;;;14.50;99.90;;;;;;4986033;28;20054;-71
2022/07/15 06:15:23;;;;;;;8.73;1.20;;;14.60;99.90;;;;;;4931839;28;207059;-70
2022/07/15 06:17:49;;;;;;;8.68;1.25;;;14.50;99.90;;;;;;4953253;28;20063;-73
2022/07/15 06:20:15;;;;;;;8.45;1.35;;;14.50;99.90;;;;;;4968109;28;259414;-72
2022/07/15 06:22:41;;;;;;;9.50;1.20;;;14.50;99.90;;;;;;4926299;28;247726;-73
2022/07/15 06:25:08;;;;;;;6.88;1.27;;;14.50;99.90;;;;;;4948282;28;72174;-72
2022/07/15 06:27:35;;;;;;;8.90;1.40;;;14.60;99.90;;;;;;4925661;28;212448;-71
2022/07/15 06:30:01;;;;;;;8.05;1.20;;;14.60;99.90;;;;;;4960581;28;270813;-72
2022/07/15 06:32:28;;;;;;;10.93;1.70;;;14.70;99.90;;;;;;4931880;28;210619;-72
2022/07/15 06:34:54;;;;;;;9.95;1.33;;;14.70;99.90;;;;;;4960432;28;265806;-72
2022/07/15 06:37:21;;;;;;;9.07;1.58;;;15.00;99.90;;;;;;4950609;28;204528;-72
2022/07/15 06:39:47;;;;;;;11.27;1.33;;;15.20;99.90;;;;;;4957457;28;61401;-72
2022/07/15 06:42:13;;;;;;;9.77;1.30;;;15.30;99.90;;;;;;4956622;28;189552;-71
2022/07/15 06:44:40;;;;;;;10.52;1.20;;;15.30;99.90;;;;;;4956131;28;269419;-71
2022/07/15 06:47:06;;;;;;;11.60;1.30;;;15.30;99.90;;;;;;4944400;28;205431;-71
2022/07/15 06:49:34;;;;;;;9.18;1.50;;;15.50;99.90;;;;;;4951373;28;259745;-71
2022/07/15 06:52:01;;;;;;;8.25;1.10;;;15.60;99.90;;;;;;4956479;28;208176;-71
2022/07/15 06:54:27;;;;;;;8.00;1.23;;;15.90;99.90;;;;;;4951725;28;272984;-71
2022/07/15 06:56:53;;;;;;;7.47;0.90;;;16.30;99.90;;;;;;4948503;28;204990;-72
2022/07/15 06:59:20;;;;;;;7.78;1.20;;;16.60;99.90;;;;;;4948278;28;255841;-71
2022/07/15 07:01:47;;;;;;;5.10;0.85;;;16.90;99.90;;;;;;4925076;28;206569;-73
2022/07/15 07:04:13;;;;;;;6.88;0.70;;;17.00;99.90;;;;;;4935877;28;269920;-71
2022/07/15 07:06:39;;;;;;;5.90;0.77;;;17.30;99.90;;;;;;4941202;28;206918;-72
2022/07/15 07:09:05;;;;;;;6.50;0.90;;;17.50;99.90;;;;;;4954903;28;20416;-72
2022/07/15 07:11:32;;;;;;;5.80;0.90;;;17.60;99.90;;;;;;4917397;28;187424;-72
2022/07/15 07:13:59;;;;;;;6.90;0.80;;;17.80;99.90;;;;;;4963852;28;20066;-73
2022/07/15 07:16:26;;;;;;;6.43;0.82;;;18.00;99.90;;;;;;4921799;28;206171;-73
2022/07/15 07:18:52;;;;;;;7.65;0.75;;;18.10;99.90;;;;;;4964474;28;20035;-73
2022/07/15 07:21:19;;;;;;;6.10;0.80;;;18.10;99.90;;;;;;4920282;28;259214;-73
2022/07/15 07:23:45;;;;;;;5.60;0.82;;;18.20;99.90;;;;;;4967486;28;20057;-73
2022/07/15 07:26:13;;;;;;;4.85;0.60;;;18.40;99.90;;;;;;4922928;28;205703;-73
2022/07/15 07:28:40;;;;;;;3.05;0.60;;;18.30;99.90;;;;;;4992382;28;20061;-73
2022/07/15 07:31:07;;;;;;;5.80;0.80;;;18.40;99.90;;;;;;4918785;28;147070;-73
2022/07/15 07:33:34;;;;;;;4.10;0.60;;;18.50;99.90;;;;;;4974366;28;20072;-74
2022/07/15 07:36:01;;;;;;;5.55;0.75;;;18.50;98.60;;;;;;4934540;28;250631;-73
2022/07/15 07:38:28;;;;;;;6.13;0.90;;;18.80;99.10;;;;;;4946109;28;20062;-75
2022/07/15 07:40:54;;;;;;;7.30;0.90;;;19.10;99.40;;;;;;4919752;28;205572;-75
2022/07/15 07:43:20;;;;;;;8.13;0.90;;;19.20;99.80;;;;;;4961422;28;20356;-75
2022/07/15 07:45:47;;;;;;;10.95;1.00;;;19.20;98.40;;;;;;4908575;28;207007;-74
2022/07/15 07:48:14;;;;;;;6.10;0.80;;;19.10;97.60;;;;;;4934634;28;20053;-75
2022/07/15 07:50:40;;;;;;;7.90;0.80;;;18.90;97.20;;;;;;4909947;28;216681;-73
2022/07/15 07:53:06;;;;;;;5.30;0.75;;;18.70;98.50;;;;;;4955594;28;20138;-73
2022/07/15 07:55:33;;;;;;;5.32;0.60;;;18.60;98.20;;;;;;4929440;28;146676;-73
2022/07/15 07:57:59;;;;;;;3.97;0.63;;;18.40;98.20;;;;;;4964080;28;20051;-74
2022/07/15 08:00:27;;;;;;;3.58;0.57;;;18.10;97.90;;;;;;4900133;28;209623;-73
2022/07/15 08:02:55;;;;;;;4.93;0.70;;;17.90;98.40;;;;;;4950054;28;20459;-73
2022/07/15 08:05:22;;;;;;;3.60;0.60;;;17.70;99.00;;;;;;4909235;28;272525;-73
2022/07/15 08:07:49;;;;;;;6.47;0.82;;;17.60;99.30;;;;;;4944230;28;20313;-73
2022/07/15 08:10:16;;;;;;;4.35;0.70;;;17.50;99.70;;;;;;4933476;28;234102;-73
2022/07/15 08:12:42;;;;;;;5.57;0.75;;;17.30;99.80;;;;;;4914209;28;206327;-73
2022/07/15 08:15:10;;;;;;;6.72;0.75;;;17.40;99.90;;;;;;4953674;28;234651;-73
2022/07/15 08:17:38;;;;;;;5.50;0.70;;;17.90;99.90;;;;;;4895053;28;206960;-74
2022/07/15 08:20:07;;;;;;;4.60;0.70;;;18.50;99.90;;;;;;4942132;28;209415;-74
2022/07/15 08:22:35;;;;;;;3.40;0.60;;;19.10;98.80;;;;;;4920267;28;226767;-74
2022/07/15 08:25:01;;;;;;;4.78;0.70;;;19.60;98.60;;;;;;4945664;28;104885;-75
2022/07/15 08:27:27;;;;;;;5.13;0.80;;;19.50;97.50;;;;;;4924835;28;205646;-74
2022/07/15 08:29:55;;;;;;;4.70;0.70;;;19.30;96.70;;;;;;4962259;28;43806;-73
2022/07/15 08:32:22;;;;;;;6.50;0.82;;;18.90;96.50;;;;;;4915528;28;207321;-73
2022/07/15 08:34:48;;;;;;;3.97;0.60;;;18.60;97.00;;;;;;4958792;28;210033;-72
2022/07/15 08:37:14;;;;;;;5.25;0.60;;;18.40;97.30;;;;;;4898706;28;225007;-73
2022/07/15 08:39:40;;;;;;;3.67;0.65;;;18.30;97.40;;;;;;4951838;28;224644;-72
2022/07/15 08:42:07;;;;;;;2.97;0.68;;;18.00;97.40;;;;;;4958642;28;206575;-73
2022/07/15 08:44:35;;;;;;;6.57;0.80;;;17.80;97.80;;;;;;4964894;28;106937;-72
2022/07/15 08:47:04;;;;;;;5.50;0.77;;;17.80;97.90;;;;;;4941182;28;208792;-72
2022/07/15 08:49:32;;;;;;;5.40;0.90;;;17.80;98.10;;;;;;4955417;28;259401;-72
2022/07/15 08:52:00;;;;;;;6.72;0.80;;;17.60;98.20;;;;;;4923968;28;206562;-73
2022/07/15 08:54:29;;;;;;;5.55;0.73;;;17.70;98.40;;;;;;4968436;28;250714;-73
2022/07/15 08:56:57;;;;;;;4.18;0.60;;;17.90;98.50;;;;;;4938994;28;205579;-73
2022/07/15 08:59:24;;;;;;;6.10;0.80;;;18.40;98.20;;;;;;4967556;28;266365;-73
2022/07/15 09:01:51;;;;;;;4.70;0.73;;;19.10;97.50;;;;;;4933636;28;213293;-72
2022/07/15 09:04:18;;;;;;;3.47;0.70;;;19.60;96.20;;;;;;4938425;28;261886;-75
2022/07/15 09:06:46;;;;;;;2.63;0.60;;;20.10;95.80;;;;;;4964735;28;211670;-74
2022/07/15 09:09:36;;;;;;;4.45;0.60;;;20.50;93.20;;;;;;4953859;28;277025;-75
2022/07/15 09:12:05;;;;;;;3.30;0.57;;;20.30;91.40;;;;;;4947283;28;124820;-74
2022/07/15 09:14:34;;;;;;;4.03;0.60;;;19.80;93.20;;;;;;4982476;28;270827;-74
2022/07/15 09:17:20;;;;;;;5.22;0.70;;;19.70;94.30;;;;;;4918149;28;207451;-76
2022/07/15 09:20:01;;;;;;;5.35;0.57;;;19.30;94.10;;;;;;4954775;28;178956;-75
2022/07/15 09:22:30;;;;;;;4.88;0.80;;;19.10;94.40;;;;;;4956121;28;131267;-73
2022/07/15 09:25:08;;;;;;;5.32;0.60;;;18.90;94.70;;;;;;4951883;28;144481;-73
2022/07/15 09:27:40;;;;;;;5.20;0.70;;;18.80;95.00;;;;;;4934410;28;207745;-73
2022/07/15 09:36:08;;;;;;;5.30;0.80;;;18.90;95.30;;;;;;4927879;28;264638;-73
2022/07/15 09:39:02;;;;;;;4.07;1.13;;;19.00;95.30;;;;;;4971204;28;20135;-73
2022/07/15 09:41:38;;;;;;;6.97;0.80;;;18.90;95.30;;;;;;4907217;28;202457;-74
2022/07/15 09:44:07;;;;;;;5.47;0.88;;;18.90;95.10;;;;;;4964379;28;20481;-73
2022/07/15 09:46:59;;;;;;;3.45;0.60;;;18.80;95.30;;;;;;4888488;28;293870;-73
2022/07/15 09:49:25;;;;;;;6.10;0.75;;;18.90;94.80;;;;;;4935204;28;260880;-73
2022/07/15 09:51:56;;;;;;;5.45;0.70;;;18.70;94.70;;;;;;4926032;28;215455;-73
2022/07/15 09:54:25;;;;;;;8.00;0.80;;;18.70;94.90;;;;;;4948715;28;262021;-73
2022/07/15 09:56:52;;;;;;;3.97;1.13;;;18.80;95.00;;;;;;4949467;28;206177;-74
2022/07/15 09:59:19;;;;;;;6.88;0.70;;;18.80;94.80;;;;;;4946219;28;264521;-72
2022/07/15 10:01:47;;;;;;;4.47;0.70;;;18.90;94.50;;;;;;4938753;28;217295;-72
2022/07/15 10:04:16;;;;;;;5.57;0.80;;;18.90;94.50;;;;;;4952499;28;275493;-70
2022/07/15 10:06:43;;;;;;;4.47;0.63;;;18.80;94.40;;;;;;4939980;28;210748;-73
2022/07/15 10:09:09;;;;;;;2.90;0.50;;;18.70;94.40;;;;;;4956076;28;258080;-73
2022/07/15 10:11:42;;;;;;;5.38;0.90;;;18.60;95.00;;;;;;4924892;28;207154;-74
2022/07/15 10:14:42;;;;;;;2.88;0.60;;;18.60;95.20;;;;;;4962090;28;20057;-74
2022/07/15 10:17:27;;;;;;;6.17;0.80;;;18.70;95.30;;;;;;4929490;28;206395;-73
2022/07/15 10:20:22;;;;;;;4.55;0.95;;;18.70;95.10;;;;;;4959914;28;93603;-73
2022/07/15 10:22:59;;;;;;;4.18;0.65;;;18.70;95.60;;;;;;4916119;28;228047;-73
2022/07/15 10:25:43;;;;;;;2.97;0.60;;;18.80;95.50;;;;;;4915609;28;209668;-72
2022/07/15 10:28:19;;;;;;;3.83;0.68;;;19.00;95.60;;;;;;4952681;28;20058;-72
2022/07/15 10:30:45;;;;;;;3.60;0.70;;;19.30;95.70;;;;;;4921578;28;207915;-73
2022/07/15 10:33:19;;;;;;;7.38;0.70;;;19.90;95.00;;;;;;4948309;28;20137;-73
2022/07/15 10:35:49;;;;;;;3.65;0.60;;;20.40;94.60;;;;;;4917183;28;246249;-73
2022/07/15 10:38:26;;;;;;;5.75;0.73;;;20.80;93.70;;;;;;4955548;28;20054;-74
2022/07/15 10:41:02;;;;;;;3.05;0.63;;;20.90;92.70;;;;;;4937631;28;210257;-73
2022/07/15 10:43:48;;;;;;;4.00;0.68;;;20.70;93.00;;;;;;4966905;28;20050;-74
2022/07/15 10:46:17;;;;;;;4.00;0.70;;;20.60;92.70;;;;;;4928621;28;272325;-74
2022/07/15 10:48:59;;;;;;;5.07;0.60;;;20.60;92.20;;;;;;4962211;28;20055;-73
2022/07/15 10:51:37;;;;;;;4.18;0.70;;;20.50;92.60;;;;;;4942842;28;216060;-73
2022/07/15 10:54:30;;;;;;;4.13;0.80;;;20.50;92.20;;;;;;4965910;28;20047;-74
2022/07/15 10:56:57;;;;;;;4.32;0.68;;;20.40;91.10;;;;;;4913177;28;207790;-72
2022/07/15 10:59:24;;;;;;;2.85;0.65;;;20.30;92.10;;;;;;4955341;28;259141;-72
2022/07/15 11:02:00;;;;;;;4.25;0.70;;;20.30;92.00;;;;;;4925948;28;206236;-72
2022/07/15 11:04:31;;;;;;;4.78;0.60;;;20.40;91.70;;;;;;4932801;28;284204;-73
2022/07/15 11:07:07;;;;;;;4.35;0.70;;;20.50;91.30;;;;;;4902187;28;214145;-73
2022/07/15 11:09:51;;;;;;;3.05;0.60;;;20.40;90.50;;;;;;4948966;28;256726;-73
2022/07/15 11:12:20;;;;;;;3.33;0.60;;;20.30;90.90;;;;;;4909465;28;215294;-73
2022/07/15 11:14:54;;;;;;;5.20;0.70;;;20.30;91.40;;;;;;4969682;28;238969;-73
2022/07/15 11:17:28;;;;;;;6.53;1.52;;;20.10;91.90;;;;;;4904276;28;217959;-73
2022/07/15 11:20:21;;;;;;;2.83;0.63;;;20.10;91.80;;;;;;4963974;28;149957;-74
2022/07/15 11:22:50;;;;;;;4.07;0.70;;;20.10;90.90;;;;;;4895277;28;204650;-73
2022/07/15 11:25:38;;;;;;;4.03;0.70;;;20.00;91.60;;;;;;4963277;28;258461;-73
2022/07/15 11:28:06;;;;;;;4.38;0.68;;;20.10;90.60;;;;;;4956969;28;205737;-73
2022/07/15 11:30:44;;;;;;;2.97;0.70;;;20.10;91.20;;;;;;4933745;28;267681;-72
2022/07/15 11:33:13;;;;;;;3.00;0.55;;;20.10;91.40;;;;;;4963221;28;20058;-73
2022/07/15 11:35:52;;;;;;;3.35;0.70;;;20.30;91.40;;;;;;4920971;28;207011;-72
2022/07/15 11:38:22;;;;;;;2.30;0.50;;;20.50;90.80;;;;;;4968585;28;20428;-73
2022/07/15 11:46:31;;;;;;;4.90;0.70;;;20.40;89.10;;;;;;4904842;28;238960;-72
2022/07/15 11:48:58;;;;;;;4.50;0.68;;;20.50;87.90;;;;;;4963981;28;20043;-72
2022/07/15 11:51:29;;;;;;;4.00;0.50;;;20.60;88.50;;;;;;4918310;28;203457;-71
2022/07/15 11:53:57;;;;;;;3.47;0.70;;;20.50;86.70;;;;;;4955035;28;20055;-72
2022/07/15 11:56:24;;;;;;;4.60;0.70;;;20.60;86.40;;;;;;4916775;28;208313;-74
2022/07/15 11:58:53;;;;;;;4.00;0.65;;;20.60;86.10;;;;;;4961465;28;20051;-73
2022/07/15 12:01:28;;;;;;;4.55;0.70;;;20.90;86.70;;;;;;4926152;28;268095;-73
2022/07/15 12:03:55;;;;;;;3.63;0.60;;;21.20;86.70;;;;;;4972834;28;20055;-75
2022/07/15 12:06:28;;;;;;;4.40;0.60;;;21.50;85.70;;;;;;4906300;28;204681;-77
2022/07/15 12:09:00;;;;;;;2.70;0.50;;;21.60;81.60;;;;;;4956678;28;20062;-76
2022/07/15 12:11:33;;;;;;;4.07;0.70;;;21.60;81.00;;;;;;4915899;28;206971;-77
2022/07/15 12:14:21;;;;;;;4.60;0.60;;;21.80;82.60;;;;;;4966347;28;20449;-77
2022/07/15 12:16:53;;;;;;;3.35;0.60;;;22.00;78.40;;;;;;4934593;28;208264;-78
2022/07/15 12:19:24;;;;;;;2.72;0.60;;;21.80;76.40;;;;;;4953735;28;263008;-78
2022/07/15 12:21:56;;;;;;;2.58;0.60;;;21.90;79.50;;;;;;4907655;28;222450;-76
2022/07/15 12:24:47;;;;;;;4.07;0.70;;;21.80;77.90;;;;;;4948544;28;253274;-76
2022/07/15 12:27:13;;;;;;;3.67;0.70;;;21.90;79.60;;;;;;4939707;28;222459;-79
2022/07/15 12:29:41;;;;;;;1.98;0.50;;;22.30;76.70;;;;;;4953011;28;260878;-77
2022/07/15 12:32:11;;;;;;;3.67;0.60;;;22.90;73.80;;;;;;4953515;28;127086;-76
2022/07/15 12:34:46;;;;;;;2.45;0.60;;;23.10;74.90;;;;;;4956247;28;187840;-77
2022/07/15 12:37:14;;;;;;;3.38;0.63;;;22.70;70.10;;;;;;4934251;28;215461;-78
2022/07/15 12:40:09;;;;;;;1.80;0.60;;;22.30;70.70;;;;;;4981562;28;143415;-77
2022/07/15 12:42:38;;;;;;;4.75;0.70;;;21.80;72.50;;;;;;4947129;28;216551;-76
2022/07/15 12:45:20;;;;;;;2.50;0.50;;;21.90;74.30;;;;;;4974157;28;103782;-77
2022/07/15 12:48:06;;;;;;;4.25;0.85;;;21.90;73.50;;;;;;4916657;28;127684;-77
2022/07/15 12:50:34;;;;;;;4.63;0.70;;;21.80;74.10;;;;;;4918391;28;217118;-78
2022/07/15 12:53:00;;;;;;;5.68;0.80;;;21.70;75.80;;;;;;4951741;28;20059;-77
2022/07/15 12:55:32;;;;;;;3.05;0.60;;;21.40;74.00;;;;;;4939662;28;210791;-77
2022/07/15 12:58:09;;;;;;;5.60;0.93;;;21.30;75.00;;;;;;4975674;28;20059;-76
2022/07/15 13:00:37;;;;;;;3.75;0.60;;;21.10;75.90;;;;;;4895938;28;231345;-75